Time;durP1;ratioP1;P1;durP2;ratioP2;P2;SDS_P1;SDS_P2;PMS_P1;PMS_P2;Temp;Humidity;BMP_temperature;BMP_pressure;BME280_temperature;BME280_humidity;BME280_pressure;Samples;Min_cycle;Max_cycle;Signal;HPM_P1;HPM_P2
2023/06/08 00:01:15;;;;;;;12.13;3.35;;;;;;;15.78;88.59;101647.13;6188334;28;20062;-74
2023/06/08 00:04:16;;;;;;;15.60;3.28;;;;;;;15.62;89.79;101648.94;6180605;28;20094;-76
2023/06/08 00:07:18;;;;;;;7.47;2.28;;;;;;;15.66;88.18;101650.50;6179268;28;20050;-76
2023/06/08 00:10:19;;;;;;;8.00;2.58;;;;;;;15.42;90.00;101655.44;6179910;28;20058;-77
2023/06/08 00:13:21;;;;;;;9.57;4.13;;;;;;;15.41;89.59;101659.03;6194243;28;20066;-76
2023/06/08 00:16:24;;;;;;;7.97;2.78;;;;;;;15.11;91.79;101648.44;6204401;28;20088;-77
2023/06/08 00:19:25;;;;;;;8.15;3.13;;;;;;;15.08;92.72;101652.13;6202613;28;20054;-75
2023/06/08 00:22:27;;;;;;;9.88;2.80;;;;;;;15.01;92.67;101649.91;6196273;28;20043;-76
2023/06/08 00:25:28;;;;;;;9.23;2.97;;;;;;;14.89;93.95;101651.44;6180192;28;20047;-75
2023/06/08 00:28:29;;;;;;;10.32;3.67;;;;;;;14.80;94.89;101650.19;6181247;28;20058;-74
2023/06/08 00:31:32;;;;;;;7.20;3.65;;;;;;;14.75;95.60;101648.75;6180758;28;20063;-77
2023/06/08 00:34:33;;;;;;;10.00;3.97;;;;;;;14.75;95.56;101640.78;6180163;28;20077;-75
2023/06/08 00:37:36;;;;;;;7.22;3.38;;;;;;;14.71;94.91;101637.47;6188076;28;20048;-76
2023/06/08 00:40:37;;;;;;;6.78;2.90;;;;;;;14.69;96.55;101637.56;6198658;28;20443;-77
2023/06/08 00:43:38;;;;;;;7.95;3.35;;;;;;;14.59;96.98;101640.81;6203914;28;20046;-77
2023/06/08 00:46:42;;;;;;;13.00;3.75;;;;;;;14.67;97.17;101630.63;6203765;28;20039;-77
2023/06/08 00:49:43;;;;;;;6.93;3.25;;;;;;;14.59;95.87;101641.66;6203124;28;20436;-77
2023/06/08 00:52:45;;;;;;;10.88;3.40;;;;;;;14.50;98.00;101638.69;6203880;28;20053;-77
2023/06/08 00:55:50;;;;;;;10.98;2.85;;;;;;;14.58;97.68;101647.91;6203554;28;20053;-77
2023/06/08 00:58:52;;;;;;;6.72;2.75;;;;;;;14.57;97.64;101645.31;6202083;28;20058;-77
2023/06/08 01:01:57;;;;;;;8.25;3.00;;;;;;;14.61;96.80;101650.34;6202862;28;20057;-77
2023/06/08 01:05:03;;;;;;;8.10;3.53;;;;;;;14.55;98.55;101640.13;6203725;28;20064;-74
2023/06/08 01:08:13;;;;;;;9.18;3.05;;;;;;;14.66;97.89;101642.16;6187736;28;20448;-77
2023/06/08 01:11:21;;;;;;;9.30;3.05;;;;;;;14.58;97.59;101636.44;6178562;28;20384;-77
2023/06/08 01:14:36;;;;;;;10.45;4.25;;;;;;;14.46;98.08;101651.19;6179158;28;20054;-77
2023/06/08 01:17:41;;;;;;;10.48;3.75;;;;;;;14.34;100.00;101647.41;6191364;28;20046;-77
2023/06/08 01:20:51;;;;;;;16.42;3.78;;;;;;;14.46;99.76;101648.53;6200140;28;20072;-78
2023/06/08 01:24:05;;;;;;;6.28;3.90;;;;;;;14.51;98.64;101649.16;6195051;28;20082;-77
2023/06/08 01:27:08;;;;;;;6.85;3.47;;;;;;;14.34;99.03;101642.13;6202595;28;20053;-77
2023/06/08 01:30:10;;;;;;;5.18;3.00;;;;;;;14.34;99.69;101643.91;6200771;28;20054;-77
2023/06/08 01:33:15;;;;;;;9.30;3.33;;;;;;;14.33;99.95;101637.78;6202692;28;20085;-77
2023/06/08 01:36:22;;;;;;;10.65;4.50;;;;;;;14.36;100.00;101636.78;6202814;28;20133;-77
2023/06/08 01:39:36;;;;;;;6.50;3.72;;;;;;;14.36;100.00;101632.34;6201988;28;20054;-77
2023/06/08 01:42:38;;;;;;;16.85;4.55;;;;;;;14.36;99.99;101626.19;6191471;28;20047;-77
2023/06/08 01:45:44;;;;;;;17.25;3.95;;;;;;;14.30;100.00;101622.06;6178258;28;20443;-76
2023/06/08 01:48:47;;;;;;;12.43;4.00;;;;;;;14.16;100.00;101614.91;6178545;28;20051;-77
2023/06/08 01:51:49;;;;;;;10.13;4.22;;;;;;;14.15;100.00;101625.56;6177644;28;20053;-76
2023/06/08 01:54:52;;;;;;;15.10;4.75;;;;;;;14.05;100.00;101614.63;6178436;28;20055;-76
2023/06/08 01:57:53;;;;;;;11.40;4.10;;;;;;;14.06;100.00;101616.34;6190326;28;20051;-76
2023/06/08 02:00:55;;;;;;;11.40;3.67;;;;;;;13.93;100.00;101623.22;6194448;28;20050;-76
2023/06/08 02:03:56;;;;;;;18.95;4.93;;;;;;;13.78;100.00;101629.31;6202367;28;20065;-77
2023/06/08 02:06:57;;;;;;;11.48;3.97;;;;;;;13.80;100.00;101625.66;6201840;28;20046;-76
2023/06/08 02:10:00;;;;;;;17.13;4.90;;;;;;;13.77;100.00;101628.47;6200947;28;20049;-76
2023/06/08 02:13:02;;;;;;;14.43;4.53;;;;;;;13.66;100.00;101625.53;6201823;28;20053;-74
2023/06/08 02:16:03;;;;;;;10.15;4.32;;;;;;;13.63;100.00;101628.34;6201901;28;20053;-74
2023/06/08 02:19:04;;;;;;;15.32;4.95;;;;;;;13.59;100.00;101624.16;6201820;28;20073;-75
2023/06/08 02:22:06;;;;;;;23.45;5.70;;;;;;;13.53;100.00;101627.94;6201037;28;20057;-74
2023/06/08 02:25:09;;;;;;;11.60;4.35;;;;;;;13.56;100.00;101619.00;6201722;28;20057;-74
2023/06/08 02:28:11;;;;;;;14.30;4.43;;;;;;;13.58;100.00;101628.59;6200805;28;20050;-74
2023/06/08 02:31:12;;;;;;;9.73;4.75;;;;;;;13.54;100.00;101634.09;6199262;28;20455;-74
2023/06/08 02:34:13;;;;;;;20.83;6.63;;;;;;;13.40;100.00;101627.75;6177368;28;20047;-74
2023/06/08 02:37:15;;;;;;;16.33;5.45;;;;;;;13.33;100.00;101623.69;6177519;28;20058;-74
2023/06/08 02:40:18;;;;;;;10.07;5.30;;;;;;;13.20;100.00;101623.41;6176674;28;20058;-73
2023/06/08 02:43:20;;;;;;;9.52;5.00;;;;;;;13.10;100.00;101616.03;6194591;28;20057;-73
2023/06/08 02:46:21;;;;;;;19.42;5.28;;;;;;;12.88;100.00;101617.09;6197456;28;20052;-74
2023/06/08 02:49:22;;;;;;;9.73;5.05;;;;;;;13.01;100.00;101613.88;6177970;28;20058;-74
2023/06/08 02:52:24;;;;;;;11.50;5.15;;;;;;;13.06;100.00;101615.34;6201362;28;20385;-74
2023/06/08 02:55:28;;;;;;;12.00;5.30;;;;;;;13.01;100.00;101613.88;6201227;28;20129;-74
2023/06/08 02:58:30;;;;;;;12.88;5.45;;;;;;;13.09;100.00;101611.72;6201300;28;20092;-74
2023/06/08 03:01:33;;;;;;;16.08;6.43;;;;;;;13.09;100.00;101617.84;6199501;28;20046;-74
2023/06/08 03:04:34;;;;;;;15.15;6.30;;;;;;;13.17;100.00;101620.94;6201147;28;20053;-74
2023/06/08 03:07:36;;;;;;;11.32;5.13;;;;;;;13.04;100.00;101619.00;6197528;28;20043;-74
2023/06/08 03:10:39;;;;;;;16.40;5.30;;;;;;;12.94;100.00;101615.94;6187499;28;20043;-73
2023/06/08 03:13:40;;;;;;;16.20;5.35;;;;;;;12.98;100.00;101609.59;6190464;28;20514;-75
2023/06/08 03:16:42;;;;;;;17.77;7.20;;;;;;;12.97;100.00;101612.31;6198829;28;20329;-73
2023/06/08 03:19:43;;;;;;;14.88;6.68;;;;;;;12.95;100.00;101613.25;6188115;28;20094;-74
2023/06/08 03:22:45;;;;;;;21.63;6.15;;;;;;;13.05;100.00;101613.63;6187791;28;20345;-74
2023/06/08 03:25:49;;;;;;;16.95;8.20;;;;;;;13.16;100.00;101623.66;6187047;28;20054;-74
2023/06/08 03:28:52;;;;;;;13.43;6.13;;;;;;;13.22;100.00;101620.75;6184481;28;20061;-74
2023/06/08 03:31:53;;;;;;;19.55;7.85;;;;;;;13.19;100.00;101624.34;6182953;28;20134;-74
2023/06/08 03:34:56;;;;;;;25.35;7.97;;;;;;;12.99;100.00;101621.00;6176839;28;20099;-74
2023/06/08 03:37:57;;;;;;;25.05;8.48;;;;;;;12.89;100.00;101620.59;6176625;28;20051;-74
2023/06/08 03:41:00;;;;;;;18.30;8.55;;;;;;;12.84;100.00;101618.19;6178515;28;20058;-74
2023/06/08 03:44:02;;;;;;;24.42;8.50;;;;;;;12.75;100.00;101623.03;6181170;28;20073;-74
2023/06/08 03:47:03;;;;;;;28.60;9.50;;;;;;;12.86;100.00;101626.03;6169374;28;20192;-75
2023/06/08 03:50:05;;;;;;;21.40;8.80;;;;;;;13.03;100.00;101631.31;6176038;28;20057;-74
2023/06/08 03:53:07;;;;;;;23.75;8.90;;;;;;;13.00;100.00;101623.56;6182989;28;20476;-74
2023/06/08 03:56:09;;;;;;;14.88;7.57;;;;;;;12.87;100.00;101622.47;6184517;28;20046;-76
2023/06/08 03:59:11;;;;;;;23.60;7.57;;;;;;;12.89;100.00;101631.13;6182480;28;20049;-75
2023/06/08 04:02:13;;;;;;;23.92;9.75;;;;;;;12.94;100.00;101621.22;6183147;28;20554;-74
2023/06/08 04:05:14;;;;;;;20.65;8.30;;;;;;;12.85;100.00;101627.81;6177307;28;20053;-75
2023/06/08 04:08:16;;;;;;;24.70;9.27;;;;;;;12.83;100.00;101621.75;6183652;28;20689;-75
2023/06/08 04:11:19;;;;;;;21.30;9.18;;;;;;;12.86;100.00;101626.03;6181486;28;20053;-74
2023/06/08 04:14:20;;;;;;;23.05;8.57;;;;;;;12.86;100.00;101613.69;6183445;28;20128;-74
2023/06/08 04:17:23;;;;;;;25.45;9.73;;;;;;;12.80;100.00;101623.69;6184162;28;20046;-74
2023/06/08 04:20:24;;;;;;;19.88;8.23;;;;;;;12.74;100.00;101629.25;6185249;28;20447;-74
2023/06/08 04:23:27;;;;;;;26.40;9.68;;;;;;;12.74;100.00;101623.97;6183386;28;20047;-74
2023/06/08 04:26:29;;;;;;;25.50;8.40;;;;;;;12.66;100.00;101604.09;6184410;28;20102;-75
2023/06/08 04:29:31;;;;;;;18.67;8.70;;;;;;;12.79;100.00;101614.91;6174493;28;20061;-74
2023/06/08 04:32:33;;;;;;;19.40;8.95;;;;;;;12.70;100.00;101610.94;6160154;28;20781;-74
2023/06/08 04:35:34;;;;;;;17.88;7.93;;;;;;;12.74;100.00;101611.66;6159833;28;20525;-77
2023/06/08 04:38:35;;;;;;;23.60;9.52;;;;;;;12.84;100.00;101609.41;6159669;28;20042;-75
2023/06/08 04:41:40;;;;;;;21.98;9.68;;;;;;;12.77;100.00;101603.59;6158641;28;20592;-75
2023/06/08 04:44:42;;;;;;;22.30;9.20;;;;;;;12.74;100.00;101602.88;6161330;28;20051;-75
2023/06/08 04:47:43;;;;;;;24.55;9.38;;;;;;;12.65;100.00;101602.41;6178647;28;20051;-74
2023/06/08 04:50:45;;;;;;;22.98;9.70;;;;;;;12.58;100.00;101598.38;6194755;28;20057;-74
2023/06/08 04:53:46;;;;;;;28.52;10.68;;;;;;;12.68;100.00;101601.41;6202869;28;20054;-74
2023/06/08 04:56:49;;;;;;;27.15;10.82;;;;;;;12.79;100.00;101599.09;6203265;28;20073;-75
2023/06/08 04:59:50;;;;;;;28.08;9.50;;;;;;;12.79;100.00;101592.97;6201280;28;20053;-74
2023/06/08 05:02:52;;;;;;;28.95;10.77;;;;;;;12.73;100.00;101594.13;6202977;28;20355;-75
2023/06/08 05:05:54;;;;;;;23.58;9.90;;;;;;;12.82;100.00;101595.47;6203321;28;20054;-74
2023/06/08 05:08:55;;;;;;;25.23;9.98;;;;;;;12.79;100.00;101599.09;6199996;28;20046;-75
2023/06/08 05:11:58;;;;;;;21.65;9.90;;;;;;;12.99;100.00;101611.31;6194547;28;20054;-75
2023/06/08 05:15:00;;;;;;;21.95;7.55;;;;;;;13.01;100.00;101604.16;6202933;28;20336;-74
2023/06/08 05:18:01;;;;;;;24.73;8.55;;;;;;;12.92;100.00;101605.47;6201292;28;20054;-74
2023/06/08 05:21:03;;;;;;;26.65;8.82;;;;;;;12.75;100.00;101596.69;6200602;28;20435;-74
2023/06/08 05:24:05;;;;;;;27.23;9.20;;;;;;;12.67;100.00;101608.47;6187924;28;20055;-74
2023/06/08 05:27:08;;;;;;;22.75;8.57;;;;;;;12.71;100.00;101601.22;6188102;28;20053;-74
2023/06/08 05:30:09;;;;;;;17.88;8.40;;;;;;;12.76;100.00;101601.88;6201365;28;20050;-74
2023/06/08 05:33:11;;;;;;;17.17;7.30;;;;;;;12.79;100.00;101606.16;6202717;28;20050;-74
2023/06/08 05:36:13;;;;;;;18.77;9.70;;;;;;;12.79;100.00;101598.22;6202406;28;20061;-74
2023/06/08 05:39:15;;;;;;;25.63;8.55;;;;;;;12.85;100.00;101605.84;6202715;28;20046;-75
2023/06/08 05:42:18;;;;;;;20.83;7.63;;;;;;;12.84;100.00;101612.91;6189545;28;20059;-71
2023/06/08 05:45:20;;;;;;;20.98;9.43;;;;;;;12.80;100.00;101600.78;6198739;28;20115;-72
2023/06/08 05:48:21;;;;;;;17.90;9.63;;;;;;;12.71;100.00;101606.50;6202251;28;20058;-71
2023/06/08 05:51:23;;;;;;;20.70;8.82;;;;;;;12.67;100.00;101613.75;6190455;28;20055;-71
2023/06/08 05:54:24;;;;;;;16.77;8.15;;;;;;;12.67;100.00;101607.59;6195670;28;20061;-71
2023/06/08 05:57:27;;;;;;;19.75;8.35;;;;;;;12.70;100.00;101602.16;6200168;28;20046;-72
2023/06/08 06:00:29;;;;;;;19.17;7.97;;;;;;;12.84;100.00;101604.13;6195268;28;20046;-71
2023/06/08 06:03:30;;;;;;;20.75;8.45;;;;;;;12.93;100.00;101611.59;6201952;28;20493;-71
2023/06/08 06:06:32;;;;;;;22.48;8.75;;;;;;;12.98;100.00;101606.09;6201913;28;20142;-72
2023/06/08 06:09:34;;;;;;;21.45;8.15;;;;;;;12.99;100.00;101613.06;6201195;28;20058;-72
2023/06/08 06:12:37;;;;;;;17.23;6.70;;;;;;;12.94;100.00;101611.53;6201940;28;20042;-72
2023/06/08 06:15:39;;;;;;;17.65;7.53;;;;;;;12.95;100.00;101618.53;6190373;28;20047;-72
2023/06/08 06:18:40;;;;;;;23.90;7.22;;;;;;;13.06;100.00;101619.75;6181713;28;20038;-71
2023/06/08 06:21:41;;;;;;;17.38;7.00;;;;;;;13.04;100.00;101614.56;6178119;28;20072;-72
2023/06/08 06:24:43;;;;;;;16.77;7.38;;;;;;;13.11;100.00;101615.97;6188357;28;20058;-72
2023/06/08 06:27:46;;;;;;;20.05;6.38;;;;;;;13.18;100.00;101616.53;6193420;28;20332;-72
2023/06/08 06:30:47;;;;;;;18.30;7.93;;;;;;;13.24;100.00;101616.25;6197251;28;20050;-71
2023/06/08 06:33:48;;;;;;;14.23;6.38;;;;;;;13.14;100.00;101617.59;6201451;28;20354;-72
2023/06/08 06:36:50;;;;;;;12.30;6.22;;;;;;;13.23;100.00;101621.59;6201289;28;20051;-71
2023/06/08 06:39:51;;;;;;;12.73;6.50;;;;;;;13.25;100.00;101625.84;6200908;28;20054;-72
2023/06/08 06:42:54;;;;;;;18.33;7.47;;;;;;;13.32;100.00;101621.13;6201377;28;20145;-71
2023/06/08 06:45:55;;;;;;;20.63;7.80;;;;;;;13.44;100.00;101628.41;6201174;28;20081;-70
2023/06/08 06:48:58;;;;;;;19.38;8.25;;;;;;;13.45;100.00;101616.94;6201108;28;20054;-70
2023/06/08 06:51:59;;;;;;;18.60;7.35;;;;;;;13.47;100.00;101622.13;6180814;28;20443;-71
2023/06/08 06:55:01;;;;;;;18.38;8.00;;;;;;;13.43;100.00;101618.78;6177173;28;20054;-71
2023/06/08 06:58:04;;;;;;;16.55;7.57;;;;;;;13.50;100.00;101624.63;6185849;28;20050;-71
2023/06/08 07:01:06;;;;;;;14.35;7.05;;;;;;;13.53;100.00;101627.09;6179547;28;20050;-74
2023/06/08 07:04:08;;;;;;;23.52;7.28;;;;;;;13.55;100.00;101625.25;6185613;28;20435;-75
2023/06/08 07:07:09;;;;;;;21.73;8.02;;;;;;;13.58;100.00;101633.88;6192844;28;20046;-75
2023/06/08 07:10:11;;;;;;;19.92;7.10;;;;;;;13.71;100.00;101632.25;6199651;28;20057;-75
2023/06/08 07:13:14;;;;;;;17.58;8.00;;;;;;;13.82;100.00;101633.50;6193007;28;20458;-75
2023/06/08 07:16:15;;;;;;;15.68;6.82;;;;;;;13.87;100.00;101628.84;6192154;28;20051;-75
2023/06/08 07:19:16;;;;;;;21.38;8.10;;;;;;;13.88;100.00;101618.19;6189479;28;20046;-75
2023/06/08 07:22:18;;;;;;;13.00;6.70;;;;;;;13.94;100.00;101614.34;6193134;28;20050;-75
2023/06/08 07:25:19;;;;;;;16.48;8.68;;;;;;;13.96;100.00;101615.97;6196760;28;20065;-74
2023/06/08 07:28:22;;;;;;;19.08;7.57;;;;;;;14.02;100.00;101614.78;6190737;28;20046;-74
2023/06/08 07:31:24;;;;;;;19.35;8.90;;;;;;;14.14;100.00;101611.50;6194983;28;20062;-74
2023/06/08 07:34:27;;;;;;;19.40;8.10;;;;;;;14.26;100.00;101619.69;6201342;28;20057;-74
2023/06/08 07:37:29;;;;;;;21.95;7.90;;;;;;;14.34;100.00;101620.13;6204550;28;20050;-74
2023/06/08 07:40:30;;;;;;;14.77;6.93;;;;;;;14.35;100.00;101614.75;6202743;28;20058;-74
2023/06/08 07:43:33;;;;;;;16.05;7.03;;;;;;;14.35;100.00;101614.75;6199471;28;20343;-72
2023/06/08 07:46:34;;;;;;;20.95;8.40;;;;;;;14.51;100.00;101619.22;6196874;28;20054;-74
2023/06/08 07:49:35;;;;;;;13.35;6.03;;;;;;;14.66;100.00;101624.50;6182566;28;20452;-74
2023/06/08 07:52:37;;;;;;;13.23;5.97;;;;;;;14.65;100.00;101621.94;6205214;28;20046;-74
2023/06/08 07:55:39;;;;;;;14.30;7.18;;;;;;;14.71;100.00;101618.94;6200146;28;20408;-72
2023/06/08 07:58:42;;;;;;;18.00;7.68;;;;;;;14.80;100.00;101615.78;6196270;28;20455;-73
2023/06/08 08:01:44;;;;;;;16.13;6.65;;;;;;;14.80;100.00;101617.56;6200487;28;20133;-74
2023/06/08 08:04:45;;;;;;;16.25;8.05;;;;;;;14.82;100.00;101624.50;6193015;28;20050;-74
2023/06/08 08:07:46;;;;;;;16.50;7.68;;;;;;;14.85;100.00;101623.44;6197412;28;20351;-74
2023/06/08 08:10:48;;;;;;;20.27;6.90;;;;;;;14.92;100.00;101624.81;6197294;28;20046;-73
2023/06/08 08:13:51;;;;;;;12.88;6.10;;;;;;;15.03;100.00;101622.38;6193314;28;20046;-73
2023/06/08 08:16:52;;;;;;;13.88;6.93;;;;;;;15.08;100.00;101624.78;6196327;28;20061;-74
2023/06/08 08:19:55;;;;;;;14.90;7.05;;;;;;;15.08;100.00;101615.06;6195516;28;20053;-74
2023/06/08 08:22:56;;;;;;;14.50;6.80;;;;;;;15.20;100.00;101619.63;6194623;28;20597;-73
2023/06/08 08:25:57;;;;;;;14.93;6.82;;;;;;;15.35;100.00;101617.88;6199022;28;20057;-72
2023/06/08 08:29:00;;;;;;;16.20;7.70;;;;;;;15.41;100.00;101609.56;6192539;28;20049;-73
2023/06/08 08:32:02;;;;;;;18.52;7.95;;;;;;;15.50;100.00;101612.59;6191521;28;20055;-74
2023/06/08 08:35:03;;;;;;;22.88;7.30;;;;;;;15.50;100.00;101609.97;6189935;28;20057;-74
2023/06/08 08:38:05;;;;;;;20.42;7.50;;;;;;;15.59;100.00;101612.06;6191498;28;20039;-73
2023/06/08 08:41:09;;;;;;;22.67;7.05;;;;;;;15.75;100.00;101604.03;6200076;28;20051;-73
2023/06/08 08:44:15;;;;;;;21.45;7.50;;;;;;;15.83;100.00;101604.44;6179792;28;20047;-73
2023/06/08 08:47:18;;;;;;;19.08;7.57;;;;;;;15.95;100.00;101612.47;6191654;28;20106;-73
2023/06/08 08:50:20;;;;;;;18.80;8.20;;;;;;;16.00;100.00;101611.34;6191792;28;20147;-73
2023/06/08 08:53:27;;;;;;;13.40;6.10;;;;;;;16.10;100.00;101617.75;6200062;28;20140;-72
2023/06/08 08:56:29;;;;;;;15.13;6.45;;;;;;;16.24;100.00;101604.50;6191629;28;20058;-72
2023/06/08 08:59:32;;;;;;;16.27;6.88;;;;;;;16.30;100.00;101612.03;6199831;28;20180;-73
2023/06/08 09:02:35;;;;;;;12.52;5.70;;;;;;;16.30;100.00;101609.38;6197341;28;20108;-73
2023/06/08 09:05:36;;;;;;;12.88;6.03;;;;;;;16.34;100.00;101610.06;6192503;28;20047;-74
2023/06/08 09:08:38;;;;;;;12.88;5.93;;;;;;;16.37;100.00;101601.91;6179135;28;20047;-74
2023/06/08 09:11:56;;;;;;;11.15;6.13;;;;;;;16.48;100.00;101600.25;6194524;28;20069;-73
2023/06/08 09:14:58;;;;;;;10.65;5.72;;;;;;;16.53;100.00;101604.41;6192923;28;20460;-73
2023/06/08 09:18:03;;;;;;;15.32;6.53;;;;;;;16.63;100.00;101602.88;6195103;28;20049;-73
2023/06/08 09:21:24;;;;;;;10.73;5.65;;;;;;;16.87;100.00;101597.78;6194214;28;20133;-73
2023/06/08 09:24:25;;;;;;;16.90;6.68;;;;;;;16.95;100.00;101601.66;6195571;28;20046;-73
2023/06/08 09:27:26;;;;;;;19.90;7.10;;;;;;;17.02;100.00;101590.59;6193378;28;20049;-72
2023/06/08 09:30:29;;;;;;;14.00;6.40;;;;;;;17.12;100.00;101595.22;6193287;28;20050;-73
2023/06/08 09:33:33;;;;;;;7.47;4.65;;;;;;;17.21;100.00;101593.72;6198096;28;20050;-73
2023/06/08 09:36:36;;;;;;;12.55;6.55;;;;;;;17.35;100.00;101587.47;6194434;28;20061;-74
2023/06/08 09:39:39;;;;;;;10.73;5.13;;;;;;;17.41;100.00;101585.25;6193584;28;20038;-72
2023/06/08 09:42:42;;;;;;;15.00;6.70;;;;;;;17.45;100.00;101583.25;6201045;28;20605;-72
2023/06/08 09:45:45;;;;;;;12.05;5.97;;;;;;;17.49;100.00;101572.31;6194338;28;20053;-72
2023/06/08 09:48:53;;;;;;;13.43;5.78;;;;;;;17.58;100.00;101573.47;6187090;28;20042;-74
2023/06/08 09:51:57;;;;;;;14.55;6.03;;;;;;;17.66;100.00;101578.22;6190814;28;20129;-73
2023/06/08 09:54:59;;;;;;;19.40;6.40;;;;;;;17.78;100.00;101576.56;6193229;28;20062;-74
2023/06/08 09:58:02;;;;;;;18.10;6.10;;;;;;;17.81;100.00;101581.69;6191664;28;20050;-73
2023/06/08 10:01:09;;;;;;;14.05;6.70;;;;;;;17.80;100.00;101578.13;6191842;28;20054;-73
2023/06/08 10:04:21;;;;;;;10.80;5.65;;;;;;;17.91;100.00;101583.56;6191646;28;20054;-72
2023/06/08 10:07:24;;;;;;;14.68;6.22;;;;;;;17.95;100.00;101561.13;6194902;28;20635;-72
2023/06/08 10:10:30;;;;;;;10.98;4.63;;;;;;;17.96;100.00;101564.63;6201037;28;20050;-74
2023/06/08 10:13:32;;;;;;;14.35;6.18;;;;;;;18.15;100.00;101566.81;6190892;28;20050;-72
2023/06/08 10:16:36;;;;;;;9.13;5.22;;;;;;;18.30;100.00;101571.00;6185577;28;20050;-72
2023/06/08 10:19:38;;;;;;;11.60;5.85;;;;;;;18.40;100.00;101568.56;6193797;28;20049;-73
2023/06/08 10:22:41;;;;;;;11.10;6.13;;;;;;;18.56;100.00;101562.94;6182329;28;20051;-74
2023/06/08 10:25:44;;;;;;;13.80;6.13;;;;;;;18.66;100.00;101566.59;6193353;28;20367;-73
2023/06/08 10:29:05;;;;;;;11.38;5.35;;;;;;;18.77;100.00;101558.72;6190058;28;20057;-73
2023/06/08 10:32:11;;;;;;;11.40;5.10;;;;;;;18.66;100.00;101548.81;6196665;28;20042;-73
2023/06/08 10:35:12;;;;;;;12.38;5.70;;;;;;;18.66;100.00;101553.31;6197493;28;20050;-71
2023/06/08 10:38:15;;;;;;;11.43;4.63;;;;;;;18.75;100.00;101555.31;6201292;28;20057;-71
2023/06/08 10:41:37;;;;;;;10.25;4.72;;;;;;;18.87;100.00;101553.56;6200836;28;20061;-72
2023/06/08 10:44:41;;;;;;;11.82;5.88;;;;;;;19.15;100.00;101544.31;6201195;28;20073;-73
2023/06/08 10:47:44;;;;;;;9.20;5.15;;;;;;;19.41;100.00;101545.81;6193471;28;20054;-71
2023/06/08 10:50:48;;;;;;;10.63;6.15;;;;;;;19.52;100.00;101545.81;6189588;28;20359;-72
2023/06/08 10:53:56;;;;;;;15.95;6.35;;;;;;;19.49;100.00;101546.06;6191153;28;20054;-73
2023/06/08 10:56:59;;;;;;;18.83;5.60;;;;;;;19.51;100.00;101545.94;6196121;28;20436;-71
2023/06/08 11:00:01;;;;;;;10.00;5.05;;;;;;;19.54;100.00;101540.38;6192782;28;20081;-72
2023/06/08 11:03:05;;;;;;;11.32;4.88;;;;;;;19.51;100.00;101540.59;6199179;28;20050;-72
2023/06/08 11:06:13;;;;;;;9.57;5.28;;;;;;;19.54;100.00;101536.84;6201024;28;20053;-71
2023/06/08 11:09:15;;;;;;;9.10;5.20;;;;;;;19.65;100.00;101526.22;6193120;28;20050;-72
2023/06/08 11:12:16;;;;;;;12.43;5.43;;;;;;;19.71;100.00;101526.59;6200250;28;20339;-72
2023/06/08 11:15:18;;;;;;;10.70;4.40;;;;;;;19.67;100.00;101526.97;6192314;28;20054;-72
2023/06/08 11:18:21;;;;;;;14.30;5.82;;;;;;;19.73;100.00;101515.78;6178501;28;20181;-72
2023/06/08 11:21:24;;;;;;;9.35;5.45;;;;;;;19.79;100.00;101522.44;6192785;28;20062;-72
2023/06/08 11:24:27;;;;;;;9.05;5.57;;;;;;;19.91;100.00;101510.81;6195620;28;20085;-73
2023/06/08 11:27:28;;;;;;;10.70;5.75;;;;;;;20.02;100.00;101508.94;6184649;28;20051;-73
2023/06/08 11:30:33;;;;;;;10.52;4.93;;;;;;;20.14;100.00;101500.94;6180246;28;20347;-73
2023/06/08 11:33:36;;;;;;;9.32;4.85;;;;;;;20.32;100.00;101499.41;6200832;28;20054;-73
2023/06/08 11:36:38;;;;;;;10.32;4.90;;;;;;;20.50;100.00;101497.94;6177343;28;20058;-73
2023/06/08 11:39:43;;;;;;;10.88;4.82;;;;;;;20.70;100.00;101493.56;6176034;28;20050;-73
2023/06/08 11:42:45;;;;;;;10.90;5.15;;;;;;;21.25;100.00;101485.34;6176666;28;20463;-73
2023/06/08 11:45:46;;;;;;;7.47;4.65;;;;;;;21.51;100.00;101480.44;6176459;28;20054;-73
2023/06/08 11:48:49;;;;;;;10.80;4.43;;;;;;;21.66;98.24;101481.75;6176410;28;20357;-72
2023/06/08 11:51:51;;;;;;;12.13;4.90;;;;;;;21.87;97.12;101481.66;6176122;28;20058;-72
2023/06/08 11:54:53;;;;;;;5.97;4.18;;;;;;;21.95;91.37;101481.00;6191392;28;20054;-72
2023/06/08 11:57:56;;;;;;;11.73;4.53;;;;;;;21.65;92.39;101471.19;6186912;28;20062;-73
2023/06/08 12:01:07;;;;;;;10.07;4.78;;;;;;;21.31;96.36;101479.50;6180096;28;20365;-73
2023/06/08 12:04:14;;;;;;;9.48;5.00;;;;;;;21.30;97.14;101477.75;6197879;28;20051;-72
2023/06/08 12:07:16;;;;;;;7.15;4.30;;;;;;;21.48;94.22;101470.88;6198776;28;20066;-73
2023/06/08 12:10:17;;;;;;;11.10;4.20;;;;;;;22.15;88.55;101463.16;6200484;28;20056;-72
2023/06/08 12:13:19;;;;;;;10.48;4.60;;;;;;;22.58;86.53;101464.59;6203516;28;20046;-73
2023/06/08 12:16:21;;;;;;;11.60;4.05;;;;;;;22.86;86.38;101470.88;6197365;28;20051;-73
2023/06/08 12:19:29;;;;;;;5.22;3.47;;;;;;;23.15;84.03;101465.47;6196423;28;20045;-73
2023/06/08 12:22:31;;;;;;;9.82;4.32;;;;;;;23.03;80.34;101460.28;6202386;28;20205;-73
2023/06/08 12:25:33;;;;;;;8.02;4.38;;;;;;;22.83;82.61;101457.75;6200329;28;20049;-72
2023/06/08 12:28:34;;;;;;;6.55;4.70;;;;;;;22.51;83.45;101458.94;6200598;28;20358;-72
2023/06/08 12:31:36;;;;;;;8.48;4.40;;;;;;;22.26;89.43;101453.16;6203238;28;20077;-73
2023/06/08 12:34:38;;;;;;;6.10;3.67;;;;;;;22.07;91.22;101446.91;6200005;28;20058;-72
2023/06/08 12:37:40;;;;;;;6.13;3.53;;;;;;;22.06;89.98;101445.22;6203977;28;20042;-73
2023/06/08 12:40:47;;;;;;;9.70;3.95;;;;;;;21.91;89.55;101439.44;6203001;28;20062;-73
2023/06/08 12:43:48;;;;;;;7.65;3.80;;;;;;;21.96;85.91;101442.53;6192663;28;20089;-72
2023/06/08 12:46:50;;;;;;;4.88;3.75;;;;;;;22.10;82.32;101439.44;6203912;28;20064;-73
2023/06/08 12:49:53;;;;;;;10.15;4.32;;;;;;;22.19;81.67;101432.44;6200273;28;20046;-73
2023/06/08 12:52:54;;;;;;;10.18;3.55;;;;;;;22.20;81.50;101426.09;6203567;28;20435;-73
2023/06/08 12:55:56;;;;;;;5.90;3.83;;;;;;;22.30;79.38;101432.28;6203518;28;20054;-71
2023/06/08 12:58:57;;;;;;;4.72;2.83;;;;;;;22.43;78.69;101429.31;6197348;28;20196;-72
2023/06/08 13:02:01;;;;;;;6.57;3.25;;;;;;;22.62;78.96;101420.41;6194529;28;20046;-72
2023/06/08 13:05:03;;;;;;;5.30;3.17;;;;;;;22.83;75.37;101418.41;6201408;28;20046;-73
2023/06/08 13:08:06;;;;;;;6.88;3.35;;;;;;;23.12;75.41;101415.69;6196245;28;20361;-73
2023/06/08 13:11:08;;;;;;;6.45;3.30;;;;;;;23.49;75.93;101410.28;6193816;28;20458;-73
2023/06/08 13:14:09;;;;;;;5.93;2.92;;;;;;;23.91;69.43;101404.38;6202498;28;20176;-71
2023/06/08 13:17:11;;;;;;;4.55;2.83;;;;;;;23.84;68.66;101403.28;6195556;28;20135;-72
2023/06/08 13:20:13;;;;;;;3.55;2.47;;;;;;;23.57;70.54;101395.25;6179281;28;20062;-73
2023/06/08 13:23:15;;;;;;;3.22;2.50;;;;;;;23.64;68.46;101390.97;6194432;28;20057;-74
2023/06/08 13:26:17;;;;;;;8.43;3.00;;;;;;;23.64;72.37;101390.97;6179052;28;20058;-74
2023/06/08 13:29:19;;;;;;;5.03;2.70;;;;;;;23.73;70.92;101382.03;6193431;28;20062;-73
2023/06/08 13:32:21;;;;;;;5.05;3.05;;;;;;;23.81;72.49;101384.81;6201347;28;20053;-72
2023/06/08 13:35:24;;;;;;;5.25;2.92;;;;;;;23.96;69.99;101383.28;6190358;28;20460;-71
2023/06/08 13:38:25;;;;;;;4.78;2.88;;;;;;;24.13;74.04;101378.06;6202511;28;20046;-73
2023/06/08 13:41:33;;;;;;;6.60;3.42;;;;;;;24.05;73.04;101376.16;6198695;28;20148;-73
2023/06/08 13:44:34;;;;;;;6.35;3.55;;;;;;;23.97;74.78;101379.59;6184960;28;20054;-74
2023/06/08 13:47:35;;;;;;;7.35;3.75;;;;;;;24.02;74.91;101363.00;6195891;28;20053;-73
2023/06/08 13:50:38;;;;;;;7.82;3.60;;;;;;;24.00;74.04;101356.97;6190872;28;20338;-74
2023/06/08 13:53:41;;;;;;;5.18;3.10;;;;;;;23.91;75.63;101357.91;6189400;28;20046;-74
2023/06/08 13:56:42;;;;;;;8.23;3.28;;;;;;;23.86;77.18;101355.66;6193420;28;20454;-73